sensor_id;sensor_type;location;lat;lon;timestamp;P1;durP1;ratioP1;P2;durP2;ratioP2
27163;SDS011;14685;50.618;7.024;2023-04-02T00:00:35;1.27;;;0.90;;
27163;SDS011;14685;50.618;7.024;2023-04-02T00:03:22;1.23;;;0.85;;
27163;SDS011;14685;50.618;7.024;2023-04-02T00:05:49;0.80;;;0.80;;
27163;SDS011;14685;50.618;7.024;2023-04-02T00:08:36;1.27;;;0.80;;
27163;SDS011;14685;50.618;7.024;2023-04-02T00:11:07;1.05;;;0.70;;
27163;SDS011;14685;50.618;7.024;2023-04-02T00:13:38;2.03;;;0.93;;
27163;SDS011;14685;50.618;7.024;2023-04-02T00:16:11;1.45;;;0.80;;
27163;SDS011;14685;50.618;7.024;2023-04-02T00:18:41;0.88;;;0.60;;
27163;SDS011;14685;50.618;7.024;2023-04-02T00:21:21;2.47;;;0.88;;
27163;SDS011;14685;50.618;7.024;2023-04-02T00:23:54;1.00;;;0.88;;
27163;SDS011;14685;50.618;7.024;2023-04-02T00:26:31;2.25;;;0.70;;
27163;SDS011;14685;50.618;7.024;2023-04-02T00:29:03;1.75;;;0.75;;
27163;SDS011;14685;50.618;7.024;2023-04-02T00:31:32;0.60;;;0.60;;
27163;SDS011;14685;50.618;7.024;2023-04-02T00:34:00;1.17;;;0.90;;
27163;SDS011;14685;50.618;7.024;2023-04-02T00:36:30;1.05;;;0.88;;
27163;SDS011;14685;50.618;7.024;2023-04-02T00:39:00;0.95;;;0.90;;
27163;SDS011;14685;50.618;7.024;2023-04-02T00:41:31;2.55;;;0.90;;
27163;SDS011;14685;50.618;7.024;2023-04-02T00:44:01;1.52;;;0.88;;
27163;SDS011;14685;50.618;7.024;2023-04-02T00:46:32;1.75;;;0.98;;
27163;SDS011;14685;50.618;7.024;2023-04-02T00:52:06;1.20;;;1.02;;
27163;SDS011;14685;50.618;7.024;2023-04-02T00:54:41;3.92;;;0.90;;
27163;SDS011;14685;50.618;7.024;2023-04-02T00:57:24;1.13;;;1.10;;
27163;SDS011;14685;50.618;7.024;2023-04-02T01:00:00;2.50;;;0.85;;
27163;SDS011;14685;50.618;7.024;2023-04-02T01:02:43;0.93;;;0.93;;
27163;SDS011;14685;50.618;7.024;2023-04-02T01:05:43;1.60;;;1.10;;
27163;SDS011;14685;50.618;7.024;2023-04-02T01:13:35;1.60;;;1.50;;
27163;SDS011;14685;50.618;7.024;2023-04-02T01:16:14;1.60;;;1.50;;
27163;SDS011;14685;50.618;7.024;2023-04-02T01:18:49;4.50;;;2.03;;
27163;SDS011;14685;50.618;7.024;2023-04-02T01:21:45;2.80;;;2.60;;
27163;SDS011;14685;50.618;7.024;2023-04-02T01:24:19;5.65;;;5.03;;
27163;SDS011;14685;50.618;7.024;2023-04-02T01:26:54;4.90;;;4.38;;
27163;SDS011;14685;50.618;7.024;2023-04-02T01:31:57;4.20;;;3.30;;
27163;SDS011;14685;50.618;7.024;2023-04-02T01:34:27;4.43;;;4.03;;
27163;SDS011;14685;50.618;7.024;2023-04-02T01:39:46;5.20;;;4.80;;
27163;SDS011;14685;50.618;7.024;2023-04-02T01:45:00;3.88;;;3.58;;
27163;SDS011;14685;50.618;7.024;2023-04-02T01:47:35;3.88;;;3.58;;
27163;SDS011;14685;50.618;7.024;2023-04-02T01:50:10;3.85;;;3.50;;
27163;SDS011;14685;50.618;7.024;2023-04-02T01:52:46;3.25;;;3.03;;
27163;SDS011;14685;50.618;7.024;2023-04-02T01:55:19;3.03;;;2.30;;
27163;SDS011;14685;50.618;7.024;2023-04-02T01:58:03;2.80;;;2.60;;
27163;SDS011;14685;50.618;7.024;2023-04-02T02:00:31;2.72;;;2.10;;
27163;SDS011;14685;50.618;7.024;2023-04-02T02:03:02;2.40;;;2.25;;
27163;SDS011;14685;50.618;7.024;2023-04-02T02:05:31;2.40;;;2.20;;
27163;SDS011;14685;50.618;7.024;2023-04-02T02:07:59;2.40;;;2.20;;
27163;SDS011;14685;50.618;7.024;2023-04-02T02:10:28;3.25;;;2.40;;
27163;SDS011;14685;50.618;7.024;2023-04-02T02:13:00;2.75;;;2.55;;
27163;SDS011;14685;50.618;7.024;2023-04-02T02:15:29;2.40;;;2.20;;
27163;SDS011;14685;50.618;7.024;2023-04-02T02:18:01;2.42;;;2.20;;
27163;SDS011;14685;50.618;7.024;2023-04-02T02:20:31;2.72;;;2.47;;
27163;SDS011;14685;50.618;7.024;2023-04-02T02:22:59;4.70;;;2.40;;
27163;SDS011;14685;50.618;7.024;2023-04-02T02:25:32;4.05;;;3.05;;
27163;SDS011;14685;50.618;7.024;2023-04-02T02:28:04;4.47;;;2.90;;
27163;SDS011;14685;50.618;7.024;2023-04-02T02:33:45;3.20;;;2.90;;
27163;SDS011;14685;50.618;7.024;2023-04-02T02:36:37;3.38;;;3.08;;
27163;SDS011;14685;50.618;7.024;2023-04-02T02:39:28;2.90;;;2.60;;
27163;SDS011;14685;50.618;7.024;2023-04-02T02:42:15;3.47;;;3.00;;
27163;SDS011;14685;50.618;7.024;2023-04-02T02:47:18;4.22;;;3.40;;
27163;SDS011;14685;50.618;7.024;2023-04-02T02:49:57;3.40;;;3.10;;
27163;SDS011;14685;50.618;7.024;2023-04-02T02:52:29;4.32;;;3.97;;
27163;SDS011;14685;50.618;7.024;2023-04-02T02:54:59;5.00;;;4.50;;
27163;SDS011;14685;50.618;7.024;2023-04-02T02:57:34;5.10;;;4.70;;
27163;SDS011;14685;50.618;7.024;2023-04-02T03:00:05;5.50;;;4.68;;
27163;SDS011;14685;50.618;7.024;2023-04-02T03:02:35;5.10;;;4.70;;
27163;SDS011;14685;50.618;7.024;2023-04-02T03:05:04;4.75;;;4.32;;
27163;SDS011;14685;50.618;7.024;2023-04-02T03:07:32;4.63;;;4.22;;
27163;SDS011;14685;50.618;7.024;2023-04-02T03:10:05;5.18;;;4.25;;
27163;SDS011;14685;50.618;7.024;2023-04-02T03:18:22;6.25;;;5.60;;
27163;SDS011;14685;50.618;7.024;2023-04-02T03:21:23;5.63;;;5.13;;
27163;SDS011;14685;50.618;7.024;2023-04-02T03:24:48;6.53;;;5.93;;
27163;SDS011;14685;50.618;7.024;2023-04-02T03:32:39;5.30;;;4.78;;
27163;SDS011;14685;50.618;7.024;2023-04-02T03:35:16;5.60;;;5.10;;
27163;SDS011;14685;50.618;7.024;2023-04-02T03:37:57;4.93;;;4.25;;
27163;SDS011;14685;50.618;7.024;2023-04-02T03:40:33;4.97;;;4.57;;
27163;SDS011;14685;50.618;7.024;2023-04-02T03:43:17;4.85;;;4.25;;
27163;SDS011;14685;50.618;7.024;2023-04-02T03:45:49;4.20;;;3.90;;
27163;SDS011;14685;50.618;7.024;2023-04-02T03:48:25;4.45;;;4.05;;
27163;SDS011;14685;50.618;7.024;2023-04-02T03:50:59;3.95;;;3.65;;
27163;SDS011;14685;50.618;7.024;2023-04-02T03:53:32;4.60;;;3.80;;
27163;SDS011;14685;50.618;7.024;2023-04-02T03:55:59;4.40;;;4.05;;
27163;SDS011;14685;50.618;7.024;2023-04-02T03:58:31;4.75;;;4.25;;
27163;SDS011;14685;50.618;7.024;2023-04-02T04:01:25;5.30;;;4.80;;
27163;SDS011;14685;50.618;7.024;2023-04-02T04:04:04;5.68;;;4.95;;
27163;SDS011;14685;50.618;7.024;2023-04-02T04:06:35;7.28;;;5.50;;
27163;SDS011;14685;50.618;7.024;2023-04-02T04:11:50;7.63;;;5.53;;
27163;SDS011;14685;50.618;7.024;2023-04-02T04:14:29;6.50;;;5.90;;
27163;SDS011;14685;50.618;7.024;2023-04-02T04:17:01;6.45;;;5.53;;
27163;SDS011;14685;50.618;7.024;2023-04-02T04:19:58;6.00;;;5.50;;
27163;SDS011;14685;50.618;7.024;2023-04-02T04:22:33;7.45;;;6.05;;
27163;SDS011;14685;50.618;7.024;2023-04-02T04:25:04;6.35;;;5.72;;
27163;SDS011;14685;50.618;7.024;2023-04-02T04:27:43;7.07;;;6.30;;
27163;SDS011;14685;50.618;7.024;2023-04-02T04:30:33;6.45;;;5.80;;
27163;SDS011;14685;50.618;7.024;2023-04-02T04:33:26;6.90;;;6.27;;
27163;SDS011;14685;50.618;7.024;2023-04-02T04:36:20;6.32;;;5.72;;
27163;SDS011;14685;50.618;7.024;2023-04-02T04:38:53;9.60;;;6.50;;
27163;SDS011;14685;50.618;7.024;2023-04-02T04:41:26;10.13;;;6.45;;
27163;SDS011;14685;50.618;7.024;2023-04-02T04:46:46;5.70;;;5.20;;
27163;SDS011;14685;50.618;7.024;2023-04-02T04:49:24;6.68;;;5.95;;
27163;SDS011;14685;50.618;7.024;2023-04-02T04:51:58;6.38;;;5.53;;
27163;SDS011;14685;50.618;7.024;2023-04-02T04:54:35;6.10;;;5.60;;
27163;SDS011;14685;50.618;7.024;2023-04-02T04:57:03;6.53;;;5.93;;
27163;SDS011;14685;50.618;7.024;2023-04-02T04:59:34;5.90;;;5.40;;
27163;SDS011;14685;50.618;7.024;2023-04-02T05:02:23;6.18;;;5.57;;
27163;SDS011;14685;50.618;7.024;2023-04-02T05:04:54;5.72;;;5.13;;
27163;SDS011;14685;50.618;7.024;2023-04-02T05:07:29;6.25;;;5.75;;
27163;SDS011;14685;50.618;7.024;2023-04-02T05:11:03;6.13;;;5.63;;
27163;SDS011;14685;50.618;7.024;2023-04-02T05:13:06;6.93;;;5.65;;
27163;SDS011;14685;50.618;7.024;2023-04-02T05:15:45;5.50;;;5.10;;
27163;SDS011;14685;50.618;7.024;2023-04-02T05:18:31;5.82;;;5.22;;
27163;SDS011;14685;50.618;7.024;2023-04-02T05:21:17;4.40;;;4.00;;
27163;SDS011;14685;50.618;7.024;2023-04-02T05:26:44;5.57;;;4.82;;
27163;SDS011;14685;50.618;7.024;2023-04-02T05:29:21;5.95;;;5.40;;
27163;SDS011;14685;50.618;7.024;2023-04-02T05:31:59;6.72;;;6.13;;
27163;SDS011;14685;50.618;7.024;2023-04-02T05:34:44;7.22;;;6.55;;
27163;SDS011;14685;50.618;7.024;2023-04-02T05:37:39;6.65;;;6.00;;
27163;SDS011;14685;50.618;7.024;2023-04-02T05:40:12;7.10;;;6.30;;
27163;SDS011;14685;50.618;7.024;2023-04-02T05:42:56;6.85;;;6.07;;
27163;SDS011;14685;50.618;7.024;2023-04-02T05:45:27;7.45;;;6.65;;
27163;SDS011;14685;50.618;7.024;2023-04-02T05:48:15;7.72;;;7.03;;
27163;SDS011;14685;50.618;7.024;2023-04-02T05:50:52;8.40;;;7.32;;
27163;SDS011;14685;50.618;7.024;2023-04-02T05:53:23;7.35;;;6.65;;
27163;SDS011;14685;50.618;7.024;2023-04-02T05:55:56;8.18;;;7.38;;
27163;SDS011;14685;50.618;7.024;2023-04-02T05:58:31;7.13;;;6.43;;
27163;SDS011;14685;50.618;7.024;2023-04-02T06:03:54;8.45;;;7.53;;
27163;SDS011;14685;50.618;7.024;2023-04-02T06:06:41;8.45;;;7.18;;
27163;SDS011;14685;50.618;7.024;2023-04-02T06:09:37;8.77;;;7.35;;
27163;SDS011;14685;50.618;7.024;2023-04-02T06:12:27;7.53;;;6.82;;
27163;SDS011;14685;50.618;7.024;2023-04-02T06:15:13;8.05;;;7.25;;
27163;SDS011;14685;50.618;7.024;2023-04-02T06:17:43;7.80;;;7.00;;
27163;SDS011;14685;50.618;7.024;2023-04-02T06:20:32;7.40;;;6.70;;
27163;SDS011;14685;50.618;7.024;2023-04-02T06:23:06;7.13;;;6.45;;
27163;SDS011;14685;50.618;7.024;2023-04-02T06:25:51;6.97;;;6.28;;
27163;SDS011;14685;50.618;7.024;2023-04-02T06:28:25;6.47;;;5.88;;
27163;SDS011;14685;50.618;7.024;2023-04-02T06:30:57;7.72;;;6.78;;
27163;SDS011;14685;50.618;7.024;2023-04-02T06:33:31;6.70;;;6.10;;
27163;SDS011;14685;50.618;7.024;2023-04-02T06:35:58;7.05;;;6.45;;
27163;SDS011;14685;50.618;7.024;2023-04-02T06:38:27;7.28;;;6.38;;
27163;SDS011;14685;50.618;7.024;2023-04-02T06:41:09;7.20;;;6.05;;
27163;SDS011;14685;50.618;7.024;2023-04-02T06:43:44;6.75;;;6.07;;
27163;SDS011;14685;50.618;7.024;2023-04-02T06:46:42;6.93;;;5.80;;
27163;SDS011;14685;50.618;7.024;2023-04-02T06:52:10;6.25;;;5.65;;
27163;SDS011;14685;50.618;7.024;2023-04-02T06:54:54;6.40;;;5.80;;
27163;SDS011;14685;50.618;7.024;2023-04-02T06:57:21;6.10;;;4.90;;
27163;SDS011;14685;50.618;7.024;2023-04-02T06:59:48;5.82;;;5.30;;
27163;SDS011;14685;50.618;7.024;2023-04-02T07:02:27;5.32;;;4.82;;
27163;SDS011;14685;50.618;7.024;2023-04-02T07:05:00;5.18;;;4.78;;
27163;SDS011;14685;50.618;7.024;2023-04-02T07:07:29;5.88;;;4.85;;
27163;SDS011;14685;50.618;7.024;2023-04-02T07:09:56;5.20;;;4.70;;
27163;SDS011;14685;50.618;7.024;2023-04-02T07:12:23;5.40;;;4.93;;
27163;SDS011;14685;50.618;7.024;2023-04-02T07:14:51;5.38;;;4.90;;
27163;SDS011;14685;50.618;7.024;2023-04-02T07:17:18;5.70;;;5.20;;
27163;SDS011;14685;50.618;7.024;2023-04-02T07:19:46;6.15;;;5.18;;
27163;SDS011;14685;50.618;7.024;2023-04-02T07:22:19;5.40;;;4.90;;
27163;SDS011;14685;50.618;7.024;2023-04-02T07:24:47;6.97;;;5.03;;
27163;SDS011;14685;50.618;7.024;2023-04-02T07:27:14;5.45;;;4.95;;
27163;SDS011;14685;50.618;7.024;2023-04-02T07:29:41;5.82;;;5.22;;
27163;SDS011;14685;50.618;7.024;2023-04-02T07:32:09;6.78;;;5.40;;
27163;SDS011;14685;50.618;7.024;2023-04-02T07:34:37;5.57;;;5.07;;
27163;SDS011;14685;50.618;7.024;2023-04-02T07:37:05;7.90;;;5.93;;
27163;SDS011;14685;50.618;7.024;2023-04-02T07:39:32;6.03;;;5.53;;
27163;SDS011;14685;50.618;7.024;2023-04-02T07:42:04;6.28;;;5.68;;
27163;SDS011;14685;50.618;7.024;2023-04-02T07:44:30;6.35;;;5.75;;
27163;SDS011;14685;50.618;7.024;2023-04-02T07:46:57;5.78;;;5.28;;
27163;SDS011;14685;50.618;7.024;2023-04-02T07:49:24;5.82;;;5.30;;
27163;SDS011;14685;50.618;7.024;2023-04-02T07:51:52;5.03;;;4.63;;
27163;SDS011;14685;50.618;7.024;2023-04-02T07:54:19;5.43;;;4.85;;
27163;SDS011;14685;50.618;7.024;2023-04-02T07:56:46;4.97;;;4.57;;
27163;SDS011;14685;50.618;7.024;2023-04-02T07:59:13;5.00;;;4.60;;
27163;SDS011;14685;50.618;7.024;2023-04-02T08:01:40;5.55;;;5.07;;
27163;SDS011;14685;50.618;7.024;2023-04-02T08:04:14;6.47;;;5.88;;
27163;SDS011;14685;50.618;7.024;2023-04-02T08:06:43;5.30;;;4.80;;
27163;SDS011;14685;50.618;7.024;2023-04-02T08:09:14;6.35;;;5.03;;
27163;SDS011;14685;50.618;7.024;2023-04-02T08:11:42;5.40;;;4.90;;
27163;SDS011;14685;50.618;7.024;2023-04-02T08:14:09;6.45;;;5.85;;
27163;SDS011;14685;50.618;7.024;2023-04-02T08:16:48;6.68;;;5.88;;
27163;SDS011;14685;50.618;7.024;2023-04-02T08:19:21;6.25;;;5.65;;
27163;SDS011;14685;50.618;7.024;2023-04-02T08:21:48;7.50;;;5.30;;
27163;SDS011;14685;50.618;7.024;2023-04-02T08:24:17;7.43;;;6.72;;
27163;SDS011;14685;50.618;7.024;2023-04-02T08:26:47;6.18;;;5.57;;
27163;SDS011;14685;50.618;7.024;2023-04-02T08:29:15;6.05;;;5.45;;
27163;SDS011;14685;50.618;7.024;2023-04-02T08:31:42;6.95;;;6.18;;
27163;SDS011;14685;50.618;7.024;2023-04-02T08:34:08;6.22;;;5.40;;
27163;SDS011;14685;50.618;7.024;2023-04-02T08:36:37;6.57;;;5.97;;
27163;SDS011;14685;50.618;7.024;2023-04-02T08:39:06;7.05;;;6.35;;
27163;SDS011;14685;50.618;7.024;2023-04-02T08:41:40;6.28;;;5.68;;
27163;SDS011;14685;50.618;7.024;2023-04-02T08:47:02;7.00;;;6.40;;
27163;SDS011;14685;50.618;7.024;2023-04-02T08:52:21;7.88;;;5.93;;
27163;SDS011;14685;50.618;7.024;2023-04-02T08:54:49;6.03;;;5.43;;
27163;SDS011;14685;50.618;7.024;2023-04-02T09:00:19;7.38;;;6.55;;
27163;SDS011;14685;50.618;7.024;2023-04-02T09:02:57;7.38;;;5.75;;
27163;SDS011;14685;50.618;7.024;2023-04-02T09:05:32;7.68;;;6.88;;
27163;SDS011;14685;50.618;7.024;2023-04-02T09:08:03;8.23;;;7.32;;
27163;SDS011;14685;50.618;7.024;2023-04-02T09:11:31;6.70;;;5.82;;
27163;SDS011;14685;50.618;7.024;2023-04-02T09:13:40;9.02;;;6.68;;
27163;SDS011;14685;50.618;7.024;2023-04-02T09:16:13;7.47;;;6.65;;
27163;SDS011;14685;50.618;7.024;2023-04-02T09:18:43;7.40;;;6.70;;
27163;SDS011;14685;50.618;7.024;2023-04-02T09:23:48;7.85;;;7.10;;
27163;SDS011;14685;50.618;7.024;2023-04-02T09:26:22;7.40;;;6.40;;
27163;SDS011;14685;50.618;7.024;2023-04-02T09:28:58;7.13;;;6.20;;
27163;SDS011;14685;50.618;7.024;2023-04-02T09:31:42;7.40;;;6.65;;
27163;SDS011;14685;50.618;7.024;2023-04-02T09:34:34;9.85;;;6.70;;
27163;SDS011;14685;50.618;7.024;2023-04-02T09:37:05;7.97;;;7.00;;
27163;SDS011;14685;50.618;7.024;2023-04-02T09:39:49;7.25;;;6.55;;
27163;SDS011;14685;50.618;7.024;2023-04-02T09:42:30;6.68;;;6.05;;
27163;SDS011;14685;50.618;7.024;2023-04-02T09:47:46;7.38;;;6.28;;
27163;SDS011;14685;50.618;7.024;2023-04-02T09:52:47;10.25;;;6.53;;
27163;SDS011;14685;50.618;7.024;2023-04-02T09:57:45;10.18;;;7.40;;
27163;SDS011;14685;50.618;7.024;2023-04-02T10:06:01;7.45;;;6.20;;
27163;SDS011;14685;50.618;7.024;2023-04-02T10:08:30;11.15;;;7.00;;
27163;SDS011;14685;50.618;7.024;2023-04-02T10:11:02;8.10;;;7.22;;
27163;SDS011;14685;50.618;7.024;2023-04-02T10:13:42;10.07;;;7.32;;
27163;SDS011;14685;50.618;7.024;2023-04-02T10:16:20;8.05;;;6.93;;
27163;SDS011;14685;50.618;7.024;2023-04-02T10:19:05;8.15;;;7.05;;
27163;SDS011;14685;50.618;7.024;2023-04-02T10:21:50;9.45;;;6.75;;
27163;SDS011;14685;50.618;7.024;2023-04-02T10:24:19;7.68;;;6.15;;
27163;SDS011;14685;50.618;7.024;2023-04-02T10:32:19;10.32;;;7.57;;
27163;SDS011;14685;50.618;7.024;2023-04-02T10:37:53;9.15;;;7.60;;
27163;SDS011;14685;50.618;7.024;2023-04-02T10:40:34;9.45;;;7.38;;
27163;SDS011;14685;50.618;7.024;2023-04-02T10:43:25;11.15;;;8.82;;
27163;SDS011;14685;50.618;7.024;2023-04-02T10:46:05;10.48;;;9.15;;
27163;SDS011;14685;50.618;7.024;2023-04-02T10:48:54;11.18;;;8.60;;
27163;SDS011;14685;50.618;7.024;2023-04-02T10:51:37;10.50;;;8.23;;
27163;SDS011;14685;50.618;7.024;2023-04-02T10:56:44;13.48;;;8.95;;
27163;SDS011;14685;50.618;7.024;2023-04-02T10:59:23;10.77;;;8.32;;
27163;SDS011;14685;50.618;7.024;2023-04-02T11:01:55;9.95;;;7.90;;
27163;SDS011;14685;50.618;7.024;2023-04-02T11:04:29;9.32;;;8.35;;
27163;SDS011;14685;50.618;7.024;2023-04-02T11:07:02;8.30;;;6.55;;
27163;SDS011;14685;50.618;7.024;2023-04-02T11:09:40;9.80;;;7.57;;
27163;SDS011;14685;50.618;7.024;2023-04-02T11:12:18;8.43;;;7.50;;
27163;SDS011;14685;50.618;7.024;2023-04-02T11:14:49;9.63;;;8.02;;
27163;SDS011;14685;50.618;7.024;2023-04-02T11:17:20;12.15;;;8.40;;
27163;SDS011;14685;50.618;7.024;2023-04-02T11:19:47;8.85;;;7.75;;
27163;SDS011;14685;50.618;7.024;2023-04-02T11:22:22;10.98;;;6.57;;
27163;SDS011;14685;50.618;7.024;2023-04-02T11:27:23;10.60;;;7.82;;
27163;SDS011;14685;50.618;7.024;2023-04-02T11:32:40;10.48;;;7.78;;
27163;SDS011;14685;50.618;7.024;2023-04-02T11:35:22;11.60;;;7.85;;
27163;SDS011;14685;50.618;7.024;2023-04-02T11:40:49;12.82;;;8.82;;
27163;SDS011;14685;50.618;7.024;2023-04-02T11:46:08;9.73;;;7.97;;
27163;SDS011;14685;50.618;7.024;2023-04-02T11:49:01;9.38;;;8.20;;
27163;SDS011;14685;50.618;7.024;2023-04-02T11:52:01;11.23;;;8.05;;
27163;SDS011;14685;50.618;7.024;2023-04-02T11:54:37;12.30;;;8.27;;
27163;SDS011;14685;50.618;7.024;2023-04-02T12:03:08;10.90;;;8.30;;
27163;SDS011;14685;50.618;7.024;2023-04-02T12:08:34;9.18;;;7.38;;
27163;SDS011;14685;50.618;7.024;2023-04-02T12:11:30;9.25;;;7.60;;
27163;SDS011;14685;50.618;7.024;2023-04-02T12:14:28;7.68;;;6.68;;
27163;SDS011;14685;50.618;7.024;2023-04-02T12:16:56;8.65;;;6.53;;
27163;SDS011;14685;50.618;7.024;2023-04-02T12:19:24;7.20;;;6.40;;
27163;SDS011;14685;50.618;7.024;2023-04-02T12:21:52;9.40;;;6.50;;
27163;SDS011;14685;50.618;7.024;2023-04-02T12:24:20;7.30;;;6.35;;
27163;SDS011;14685;50.618;7.024;2023-04-02T12:26:48;7.57;;;6.25;;
27163;SDS011;14685;50.618;7.024;2023-04-02T12:29:40;8.65;;;6.45;;
27163;SDS011;14685;50.618;7.024;2023-04-02T12:32:15;7.85;;;5.03;;
27163;SDS011;14685;50.618;7.024;2023-04-02T12:34:53;6.72;;;6.00;;
27163;SDS011;14685;50.618;7.024;2023-04-02T12:37:24;6.68;;;5.60;;
27163;SDS011;14685;50.618;7.024;2023-04-02T12:40:00;8.80;;;5.70;;
27163;SDS011;14685;50.618;7.024;2023-04-02T12:42:41;6.90;;;6.03;;
27163;SDS011;14685;50.618;7.024;2023-04-02T12:47:56;8.82;;;6.82;;
27163;SDS011;14685;50.618;7.024;2023-04-02T12:50:24;7.68;;;6.68;;
27163;SDS011;14685;50.618;7.024;2023-04-02T12:52:52;7.07;;;6.38;;
27163;SDS011;14685;50.618;7.024;2023-04-02T12:55:22;8.27;;;6.60;;
27163;SDS011;14685;50.618;7.024;2023-04-02T12:57:57;8.00;;;6.10;;
27163;SDS011;14685;50.618;7.024;2023-04-02T13:05:37;8.18;;;6.35;;
27163;SDS011;14685;50.618;7.024;2023-04-02T13:08:17;7.63;;;6.25;;
27163;SDS011;14685;50.618;7.024;2023-04-02T13:10:52;10.38;;;6.00;;
27163;SDS011;14685;50.618;7.024;2023-04-02T13:13:24;7.70;;;6.27;;
27163;SDS011;14685;50.618;7.024;2023-04-02T13:16:00;6.93;;;5.93;;
27163;SDS011;14685;50.618;7.024;2023-04-02T13:18:33;7.32;;;6.53;;
27163;SDS011;14685;50.618;7.024;2023-04-02T13:21:06;8.45;;;6.15;;
27163;SDS011;14685;50.618;7.024;2023-04-02T13:23:51;6.88;;;5.50;;
27163;SDS011;14685;50.618;7.024;2023-04-02T13:26:25;6.47;;;5.03;;
27163;SDS011;14685;50.618;7.024;2023-04-02T13:29:02;6.45;;;5.80;;
27163;SDS011;14685;50.618;7.024;2023-04-02T13:31:39;6.75;;;4.72;;
27163;SDS011;14685;50.618;7.024;2023-04-02T13:34:06;6.75;;;5.32;;
27163;SDS011;14685;50.618;7.024;2023-04-02T13:36:34;6.05;;;4.95;;
27163;SDS011;14685;50.618;7.024;2023-04-02T13:39:04;5.13;;;4.38;;
27163;SDS011;14685;50.618;7.024;2023-04-02T13:41:41;4.80;;;4.22;;
27163;SDS011;14685;50.618;7.024;2023-04-02T13:44:20;5.63;;;5.07;;
27163;SDS011;14685;50.618;7.024;2023-04-02T13:46:53;8.70;;;5.75;;
27163;SDS011;14685;50.618;7.024;2023-04-02T13:49:21;6.70;;;5.50;;
27163;SDS011;14685;50.618;7.024;2023-04-02T13:51:50;5.70;;;5.10;;
27163;SDS011;14685;50.618;7.024;2023-04-02T13:56:55;6.35;;;4.80;;
27163;SDS011;14685;50.618;7.024;2023-04-02T13:59:22;5.30;;;4.80;;
27163;SDS011;14685;50.618;7.024;2023-04-02T14:01:50;6.78;;;4.75;;
27163;SDS011;14685;50.618;7.024;2023-04-02T14:04:25;4.35;;;3.95;;
27163;SDS011;14685;50.618;7.024;2023-04-02T14:06:59;5.28;;;4.32;;
27163;SDS011;14685;50.618;7.024;2023-04-02T14:17:43;6.72;;;4.70;;
27163;SDS011;14685;50.618;7.024;2023-04-02T14:23:22;6.00;;;3.72;;
27163;SDS011;14685;50.618;7.024;2023-04-02T14:31:36;6.30;;;4.13;;
27163;SDS011;14685;50.618;7.024;2023-04-02T14:40:17;6.40;;;4.53;;
27163;SDS011;14685;50.618;7.024;2023-04-02T14:42:52;5.33;;;4.73;;
27163;SDS011;14685;50.618;7.024;2023-04-02T14:45:36;5.35;;;4.65;;
27163;SDS011;14685;50.618;7.024;2023-04-02T14:51:08;11.10;;;9.60;;
27163;SDS011;14685;50.618;7.024;2023-04-02T14:53:47;17.13;;;11.57;;
27163;SDS011;14685;50.618;7.024;2023-04-02T14:56:25;15.55;;;10.50;;
27163;SDS011;14685;50.618;7.024;2023-04-02T14:59:36;5.82;;;4.53;;
27163;SDS011;14685;50.618;7.024;2023-04-02T15:01:49;6.93;;;4.43;;
27163;SDS011;14685;50.618;7.024;2023-04-02T15:06:58;9.30;;;5.93;;
27163;SDS011;14685;50.618;7.024;2023-04-02T15:09:34;11.95;;;7.25;;
27163;SDS011;14685;50.618;7.024;2023-04-02T15:14:40;27.02;;;16.90;;
27163;SDS011;14685;50.618;7.024;2023-04-02T15:17:10;8.23;;;5.13;;
27163;SDS011;14685;50.618;7.024;2023-04-02T15:19:37;16.60;;;9.52;;
27163;SDS011;14685;50.618;7.024;2023-04-02T15:32:53;4.88;;;2.92;;
27163;SDS011;14685;50.618;7.024;2023-04-02T15:35:44;4.15;;;2.78;;
27163;SDS011;14685;50.618;7.024;2023-04-02T15:38:20;4.57;;;3.38;;
27163;SDS011;14685;50.618;7.024;2023-04-02T15:44:05;5.20;;;2.95;;
27163;SDS011;14685;50.618;7.024;2023-04-02T16:00:55;3.78;;;2.42;;
27163;SDS011;14685;50.618;7.024;2023-04-02T16:03:48;2.47;;;2.20;;
27163;SDS011;14685;50.618;7.024;2023-04-02T16:06:56;5.80;;;2.78;;
27163;SDS011;14685;50.618;7.024;2023-04-02T16:09:40;3.45;;;2.20;;
27163;SDS011;14685;50.618;7.024;2023-04-02T16:12:30;3.60;;;2.20;;
27163;SDS011;14685;50.618;7.024;2023-04-02T16:15:13;2.47;;;2.17;;
27163;SDS011;14685;50.618;7.024;2023-04-02T16:17:44;4.13;;;1.90;;
27163;SDS011;14685;50.618;7.024;2023-04-02T16:20:25;5.47;;;2.17;;
27163;SDS011;14685;50.618;7.024;2023-04-02T16:28:28;3.53;;;1.98;;
27163;SDS011;14685;50.618;7.024;2023-04-02T16:31:06;5.50;;;2.10;;
27163;SDS011;14685;50.618;7.024;2023-04-02T16:33:51;2.58;;;1.83;;
27163;SDS011;14685;50.618;7.024;2023-04-02T16:36:40;3.13;;;2.15;;
27163;SDS011;14685;50.618;7.024;2023-04-02T16:39:32;3.55;;;2.15;;
27163;SDS011;14685;50.618;7.024;2023-04-02T16:48:25;3.05;;;2.10;;
27163;SDS011;14685;50.618;7.024;2023-04-02T16:51:00;2.50;;;1.50;;
27163;SDS011;14685;50.618;7.024;2023-04-02T16:54:02;5.18;;;2.30;;
27163;SDS011;14685;50.618;7.024;2023-04-02T16:59:16;1.92;;;1.80;;
27163;SDS011;14685;50.618;7.024;2023-04-02T17:07:33;4.53;;;2.10;;
27163;SDS011;14685;50.618;7.024;2023-04-02T17:13:01;2.55;;;1.63;;
27163;SDS011;14685;50.618;7.024;2023-04-02T17:15:42;3.13;;;1.45;;
27163;SDS011;14685;50.618;7.024;2023-04-02T17:18:17;3.17;;;2.33;;
27163;SDS011;14685;50.618;7.024;2023-04-02T17:20:46;2.78;;;2.10;;
27163;SDS011;14685;50.618;7.024;2023-04-02T17:23:14;3.20;;;1.92;;
27163;SDS011;14685;50.618;7.024;2023-04-02T17:26:05;4.57;;;1.98;;
27163;SDS011;14685;50.618;7.024;2023-04-02T17:28:34;5.68;;;2.20;;
27163;SDS011;14685;50.618;7.024;2023-04-02T17:31:25;4.75;;;1.90;;
27163;SDS011;14685;50.618;7.024;2023-04-02T17:33:53;3.60;;;2.45;;
27163;SDS011;14685;50.618;7.024;2023-04-02T17:36:24;2.75;;;2.03;;
27163;SDS011;14685;50.618;7.024;2023-04-02T17:39:27;3.03;;;1.80;;
27163;SDS011;14685;50.618;7.024;2023-04-02T17:42:25;2.53;;;2.15;;
27163;SDS011;14685;50.618;7.024;2023-04-02T17:45:17;3.42;;;1.77;;
27163;SDS011;14685;50.618;7.024;2023-04-02T17:48:25;4.68;;;2.10;;
27163;SDS011;14685;50.618;7.024;2023-04-02T18:05:12;8.18;;;4.63;;
27163;SDS011;14685;50.618;7.024;2023-04-02T18:13:32;2.50;;;2.22;;
27163;SDS011;14685;50.618;7.024;2023-04-02T18:18:48;2.42;;;2.00;;
27163;SDS011;14685;50.618;7.024;2023-04-02T18:21:38;3.42;;;1.90;;
27163;SDS011;14685;50.618;7.024;2023-04-02T18:29:50;2.53;;;1.63;;
27163;SDS011;14685;50.618;7.024;2023-04-02T18:32:50;3.55;;;1.90;;
27163;SDS011;14685;50.618;7.024;2023-04-02T18:35:32;4.55;;;2.00;;
27163;SDS011;14685;50.618;7.024;2023-04-02T18:38:22;7.32;;;2.30;;
27163;SDS011;14685;50.618;7.024;2023-04-02T18:44:01;2.55;;;2.13;;
27163;SDS011;14685;50.618;7.024;2023-04-02T18:49:48;3.70;;;2.83;;
27163;SDS011;14685;50.618;7.024;2023-04-02T18:52:36;3.70;;;2.13;;
27163;SDS011;14685;50.618;7.024;2023-04-02T18:55:06;5.18;;;2.22;;
27163;SDS011;14685;50.618;7.024;2023-04-02T18:57:47;3.97;;;2.20;;
27163;SDS011;14685;50.618;7.024;2023-04-02T19:05:24;4.93;;;2.58;;
27163;SDS011;14685;50.618;7.024;2023-04-02T19:10:43;3.85;;;2.67;;
27163;SDS011;14685;50.618;7.024;2023-04-02T19:13:13;3.30;;;2.30;;
27163;SDS011;14685;50.618;7.024;2023-04-02T19:21:12;4.90;;;2.70;;
27163;SDS011;14685;50.618;7.024;2023-04-02T19:26:43;2.38;;;1.90;;
27163;SDS011;14685;50.618;7.024;2023-04-02T19:32:31;3.55;;;1.70;;
27163;SDS011;14685;50.618;7.024;2023-04-02T19:35:09;4.22;;;1.73;;
27163;SDS011;14685;50.618;7.024;2023-04-02T19:37:47;4.72;;;3.03;;
27163;SDS011;14685;50.618;7.024;2023-04-02T19:43:16;3.25;;;2.13;;
27163;SDS011;14685;50.618;7.024;2023-04-02T19:45:46;4.63;;;2.22;;
27163;SDS011;14685;50.618;7.024;2023-04-02T19:48:18;6.35;;;2.63;;
27163;SDS011;14685;50.618;7.024;2023-04-02T19:50:47;2.60;;;2.20;;